Time;durP1;ratioP1;P1;durP2;ratioP2;P2;SDS_P1;SDS_P2;PMS_P1;PMS_P2;Temp;Humidity;BMP_temperature;BMP_pressure;BME280_temperature;BME280_humidity;BME280_pressure;Samples;Min_cycle;Max_cycle;Signal;HPM_P1;HPM_P2
2021/09/25 00:01:45;;;;;;;32.20;29.47;;;;;;;;;;5080457;28;20436;-91
2021/09/25 00:04:13;;;;;;;31.53;28.93;;;;;;;;;;5080873;28;20439;-91
2021/09/25 00:06:40;;;;;;;34.00;30.90;;;;;;;;;;5081360;28;20450;-91
2021/09/25 00:09:09;;;;;;;32.47;29.83;;;;;;;;;;5081139;28;20421;-91
2021/09/25 00:11:37;;;;;;;31.43;28.90;;;;;;;;;;5080394;28;20454;-91
2021/09/25 00:14:04;;;;;;;33.10;30.33;;;;;;;;;;5080368;28;20810;-91
2021/09/25 00:16:32;;;;;;;31.23;28.80;;;;;;;;;;5063100;28;20476;-91
2021/09/25 00:19:01;;;;;;;32.07;29.00;;;;;;;;;;5080266;28;20445;-91
2021/09/25 00:21:29;;;;;;;30.60;28.30;;;;;;;;;;5080451;28;20942;-91
2021/09/25 00:23:57;;;;;;;30.90;28.50;;;;;;;;;;5081004;28;20429;-91
2021/09/25 00:26:26;;;;;;;32.83;30.23;;;;;;;;;;5080829;28;20432;-91
2021/09/25 00:28:54;;;;;;;32.83;30.23;;;;;;;;;;5080621;28;20409;-91
2021/09/25 00:31:21;;;;;;;31.87;29.17;;;;;;;;;;5079907;28;20495;-91
2021/09/25 00:33:49;;;;;;;31.23;28.77;;;;;;;;;;5080316;28;20426;-91
2021/09/25 00:36:16;;;;;;;31.87;29.47;;;;;;;;;;5080949;28;20893;-91
2021/09/25 00:38:44;;;;;;;31.27;28.77;;;;;;;;;;5080141;28;21025;-91
2021/09/25 00:41:11;;;;;;;31.67;29.13;;;;;;;;;;5080633;28;20412;-91
2021/09/25 00:43:40;;;;;;;30.80;28.33;;;;;;;;;;5079903;28;20449;-91
2021/09/25 00:46:07;;;;;;;31.93;29.53;;;;;;;;;;5079759;28;20453;-91
2021/09/25 00:48:35;;;;;;;31.40;28.90;;;;;;;;;;5076476;28;20449;-91
2021/09/25 00:51:02;;;;;;;31.83;29.23;;;;;;;;;;5076756;28;20456;-91
2021/09/25 00:53:29;;;;;;;30.57;28.17;;;;;;;;;;5077065;28;20456;-91
2021/09/25 00:55:58;;;;;;;30.43;28.03;;;;;;;;;;5077064;28;20410;-91
2021/09/25 00:58:25;;;;;;;30.63;28.03;;;;;;;;;;5077032;28;20413;-91
2021/09/25 01:00:54;;;;;;;29.97;27.70;;;;;;;;;;5077027;28;20586;-90
2021/09/25 01:03:22;;;;;;;28.33;26.03;;;;;;;;;;5076837;28;20413;-91
2021/09/25 01:05:49;;;;;;;29.63;27.43;;;;;;;;;;5076924;28;20460;-91
2021/09/25 01:08:22;;;;;;;32.23;29.30;;;;;;;;;;5076615;28;20934;-91
2021/09/25 01:10:49;;;;;;;30.93;28.40;;;;;;;;;;5076718;28;20787;-91
2021/09/25 01:13:17;;;;;;;30.20;27.63;;;;;;;;;;5077163;28;20453;-91
2021/09/25 01:15:44;;;;;;;29.90;27.47;;;;;;;;;;5076964;28;20450;-91
2021/09/25 01:18:13;;;;;;;28.60;26.40;;;;;;;;;;5076603;28;20433;-91
2021/09/25 01:20:41;;;;;;;29.23;27.13;;;;;;;;;;5076319;28;20429;-91
2021/09/25 01:23:10;;;;;;;30.20;27.90;;;;;;;;;;5076473;28;20439;-91
2021/09/25 01:25:37;;;;;;;30.03;27.43;;;;;;;;;;5076114;28;20450;-91
2021/09/25 01:28:05;;;;;;;29.67;27.43;;;;;;;;;;5076276;28;20429;-91
2021/09/25 01:30:32;;;;;;;29.93;27.53;;;;;;;;;;5076577;28;20809;-91
2021/09/25 01:33:01;;;;;;;28.70;26.20;;;;;;;;;;5076832;28;20409;-91
2021/09/25 01:35:28;;;;;;;29.80;27.27;;;;;;;;;;5075932;28;20485;-91
2021/09/25 01:37:56;;;;;;;29.93;26.90;;;;;;;;;;5075932;28;20454;-91
2021/09/25 01:40:25;;;;;;;28.37;26.27;;;;;;;;;;5075865;28;20463;-91
2021/09/25 01:42:53;;;;;;;27.47;25.30;;;;;;;;;;5075773;28;20458;-91
2021/09/25 01:45:21;;;;;;;30.10;27.50;;;;;;;;;;5076075;28;20418;-91
2021/09/25 01:47:48;;;;;;;28.50;26.10;;;;;;;;;;5075620;28;20474;-91
2021/09/25 01:50:16;;;;;;;29.30;26.83;;;;;;;;;;5076129;28;20453;-91
2021/09/25 01:52:44;;;;;;;31.17;28.67;;;;;;;;;;5075920;28;20514;-91
2021/09/25 01:55:12;;;;;;;27.60;25.47;;;;;;;;;;5076026;28;20415;-91
2021/09/25 01:57:41;;;;;;;28.60;26.17;;;;;;;;;;5076904;28;20450;-91
2021/09/25 02:00:09;;;;;;;28.80;26.40;;;;;;;;;;5075907;28;20432;-91
2021/09/25 02:02:37;;;;;;;29.03;26.53;;;;;;;;;;5075993;28;20413;-91
2021/09/25 02:05:05;;;;;;;28.47;26.17;;;;;;;;;;5075768;28;20405;-91
2021/09/25 02:07:33;;;;;;;27.73;25.63;;;;;;;;;;5075625;28;20521;-90
2021/09/25 02:10:00;;;;;;;28.17;26.03;;;;;;;;;;5075599;28;20472;-91
2021/09/25 02:12:27;;;;;;;28.60;26.43;;;;;;;;;;5075549;28;20443;-91
2021/09/25 02:14:56;;;;;;;26.80;24.73;;;;;;;;;;5075437;28;20438;-91
2021/09/25 02:17:23;;;;;;;28.70;26.17;;;;;;;;;;5075227;28;20456;-91
2021/09/25 02:19:51;;;;;;;27.50;25.40;;;;;;;;;;5075432;28;20417;-91
2021/09/25 02:22:18;;;;;;;27.03;24.73;;;;;;;;;;5075130;28;20437;-91
2021/09/25 02:24:46;;;;;;;27.73;25.63;;;;;;;;;;5075234;28;20887;-91
2021/09/25 02:27:13;;;;;;;26.70;24.70;;;;;;;;;;5075125;28;20405;-91
2021/09/25 02:29:41;;;;;;;28.10;25.80;;;;;;;;;;5074962;28;20440;-91
2021/09/25 02:32:11;;;;;;;28.27;25.67;;;;;;;;;;5074804;28;20444;-91
2021/09/25 02:34:38;;;;;;;28.00;25.70;;;;;;;;;;5075263;28;20425;-91
2021/09/25 02:37:06;;;;;;;26.70;24.70;;;;;;;;;;5075224;28;20416;-91
2021/09/25 02:39:34;;;;;;;27.17;25.17;;;;;;;;;;5074706;28;20452;-91
2021/09/25 02:42:01;;;;;;;28.63;26.23;;;;;;;;;;5057473;28;20487;-91
2021/09/25 02:44:29;;;;;;;26.73;24.57;;;;;;;;;;5074531;28;20420;-91
2021/09/25 02:46:57;;;;;;;27.33;25.03;;;;;;;;;;5074904;28;20471;-90
2021/09/25 02:49:26;;;;;;;25.67;23.53;;;;;;;;;;5074511;28;20415;-91
2021/09/25 02:51:53;;;;;;;26.57;24.50;;;;;;;;;;5074501;28;20507;-91
2021/09/25 02:54:21;;;;;;;28.27;25.87;;;;;;;;;;5074738;28;20831;-91
2021/09/25 02:56:48;;;;;;;28.90;26.43;;;;;;;;;;5074923;28;20433;-91
2021/09/25 02:59:16;;;;;;;26.00;23.97;;;;;;;;;;5057048;28;20418;-91
2021/09/25 03:01:43;;;;;;;26.97;24.97;;;;;;;;;;5074361;28;20432;-91
2021/09/25 03:04:10;;;;;;;26.57;24.50;;;;;;;;;;5074873;28;20413;-91
2021/09/25 03:06:39;;;;;;;26.53;24.63;;;;;;;;;;5074697;28;20450;-91
2021/09/25 03:09:07;;;;;;;26.43;24.27;;;;;;;;;;5074219;28;20512;-91
2021/09/25 03:11:34;;;;;;;26.60;24.47;;;;;;;;;;5073574;28;20484;-91
2021/09/25 03:14:02;;;;;;;26.57;24.50;;;;;;;;;;5074490;28;20408;-91
2021/09/25 03:16:29;;;;;;;28.43;25.83;;;;;;;;;;5074721;28;20420;-91
2021/09/25 03:18:56;;;;;;;27.20;25.30;;;;;;;;;;5074131;28;20446;-91
2021/09/25 03:21:24;;;;;;;26.53;24.53;;;;;;;;;;5074261;28;20460;-91
2021/09/25 03:23:53;;;;;;;26.53;24.40;;;;;;;;;;5074285;28;20405;-91
2021/09/25 03:26:20;;;;;;;27.43;25.13;;;;;;;;;;5074244;28;20445;-92
2021/09/25 03:28:47;;;;;;;26.57;24.47;;;;;;;;;;5074449;28;20420;-91
2021/09/25 03:31:15;;;;;;;26.80;24.80;;;;;;;;;;5074475;28;20851;-91
2021/09/25 03:33:42;;;;;;;26.87;24.87;;;;;;;;;;5073992;28;20418;-91
2021/09/25 03:36:10;;;;;;;26.57;24.47;;;;;;;;;;5074063;28;20421;-91
2021/09/25 03:38:37;;;;;;;25.77;23.83;;;;;;;;;;5074106;28;20461;-91
2021/09/25 03:41:06;;;;;;;26.63;24.67;;;;;;;;;;5074271;28;20421;-91
2021/09/25 03:43:33;;;;;;;26.53;24.43;;;;;;;;;;5074332;28;20413;-91
2021/09/25 03:46:01;;;;;;;26.47;24.47;;;;;;;;;;5074156;28;20769;-90
2021/09/25 03:48:28;;;;;;;27.70;25.33;;;;;;;;;;5056430;28;20418;-91
2021/09/25 03:50:56;;;;;;;28.13;25.83;;;;;;;;;;5073795;28;20457;-90
2021/09/25 03:53:23;;;;;;;27.00;24.90;;;;;;;;;;5073829;28;20448;-91
2021/09/25 03:55:50;;;;;;;27.20;24.93;;;;;;;;;;5073779;28;20409;-91
2021/09/25 03:58:19;;;;;;;26.47;24.40;;;;;;;;;;5073807;28;20425;-91
2021/09/25 04:00:47;;;;;;;27.73;25.33;;;;;;;;;;5074227;28;20422;-91
2021/09/25 04:03:14;;;;;;;27.17;25.20;;;;;;;;;;5056857;28;20442;-91
2021/09/25 04:05:42;;;;;;;27.30;25.07;;;;;;;;;;5073497;28;20818;-91
2021/09/25 04:08:09;;;;;;;25.20;23.40;;;;;;;;;;5073924;28;20438;-91
2021/09/25 04:10:37;;;;;;;26.20;24.20;;;;;;;;;;5073876;28;20437;-91
2021/09/25 04:13:04;;;;;;;25.37;23.57;;;;;;;;;;5055940;28;20451;-91
2021/09/25 04:15:33;;;;;;;27.57;25.50;;;;;;;;;;5074002;28;20458;-90
2021/09/25 04:18:01;;;;;;;27.40;25.20;;;;;;;;;;5073757;28;20413;-91
2021/09/25 04:20:28;;;;;;;26.67;24.67;;;;;;;;;;5073640;28;20404;-91
2021/09/25 04:22:56;;;;;;;27.23;24.90;;;;;;;;;;5056925;28;20789;-90
2021/09/25 04:25:30;;;;;;;25.90;23.70;;;;;;;;;;5077198;28;20457;-91
2021/09/25 04:27:57;;;;;;;27.83;25.70;;;;;;;;;;5077555;28;20838;-91
2021/09/25 04:30:25;;;;;;;26.10;24.17;;;;;;;;;;5077393;28;20448;-91
2021/09/25 04:32:54;;;;;;;28.17;26.07;;;;;;;;;;5077436;28;20876;-91
2021/09/25 04:35:21;;;;;;;28.23;25.80;;;;;;;;;;5077194;28;20419;-92
2021/09/25 04:37:48;;;;;;;25.70;24.00;;;;;;;;;;5077190;28;20475;-91
2021/09/25 04:40:16;;;;;;;27.10;24.97;;;;;;;;;;5077002;28;20891;-91
2021/09/25 04:42:43;;;;;;;26.00;24.10;;;;;;;;;;5077375;28;20941;-91
2021/09/25 04:45:12;;;;;;;27.53;25.30;;;;;;;;;;5077238;28;20475;-91
2021/09/25 04:47:39;;;;;;;25.70;23.87;;;;;;;;;;5077173;28;20484;-91
2021/09/25 04:50:09;;;;;;;26.10;24.10;;;;;;;;;;5077624;28;20442;-91
2021/09/25 04:52:37;;;;;;;25.30;23.50;;;;;;;;;;5059401;28;20459;-91
2021/09/25 04:55:05;;;;;;;25.40;23.33;;;;;;;;;;5077110;28;20876;-91
2021/09/25 04:57:32;;;;;;;27.43;25.07;;;;;;;;;;5076989;28;20479;-91
2021/09/25 04:59:59;;;;;;;26.63;24.63;;;;;;;;;;5077021;28;20421;-91
2021/09/25 05:02:27;;;;;;;27.93;25.57;;;;;;;;;;5059226;28;20450;-91
2021/09/25 05:04:54;;;;;;;26.60;24.40;;;;;;;;;;5076732;28;20464;-91
2021/09/25 05:07:23;;;;;;;25.87;23.83;;;;;;;;;;5076769;28;20433;-91
2021/09/25 05:09:50;;;;;;;26.97;24.87;;;;;;;;;;5076492;28;20417;-91
2021/09/25 05:12:18;;;;;;;26.70;24.60;;;;;;;;;;5076737;28;20493;-91
2021/09/25 05:14:45;;;;;;;27.20;25.10;;;;;;;;;;5076641;28;20413;-91
2021/09/25 05:17:13;;;;;;;27.07;24.97;;;;;;;;;;5058990;28;20451;-92
2021/09/25 05:19:41;;;;;;;25.97;24.07;;;;;;;;;;5076530;28;20402;-90
2021/09/25 05:22:09;;;;;;;27.50;25.13;;;;;;;;;;5076537;28;20421;-91
2021/09/25 05:24:38;;;;;;;25.90;23.80;;;;;;;;;;5059025;28;20438;-90
2021/09/25 05:27:05;;;;;;;25.63;23.50;;;;;;;;;;5076018;28;20446;-90
2021/09/25 05:29:34;;;;;;;27.00;24.73;;;;;;;;;;5076517;28;20448;-90
2021/09/25 05:32:02;;;;;;;26.30;24.17;;;;;;;;;;5058540;28;20479;-90
2021/09/25 05:34:29;;;;;;;26.97;24.97;;;;;;;;;;5076321;28;20415;-90
2021/09/25 05:36:57;;;;;;;25.77;23.77;;;;;;;;;;5076463;28;20415;-92
2021/09/25 05:39:24;;;;;;;27.10;24.90;;;;;;;;;;5076177;28;20478;-90
2021/09/25 05:41:53;;;;;;;24.57;22.17;;;;;;;;;;5076240;28;20430;-90
2021/09/25 05:44:21;;;;;;;26.97;24.47;;;;;;;;;;5076689;28;20420;-91
2021/09/25 05:46:48;;;;;;;27.33;24.83;;;;;;;;;;5076171;28;20431;-90
2021/09/25 05:49:16;;;;;;;27.53;25.43;;;;;;;;;;5075995;28;20413;-90
2021/09/25 05:51:43;;;;;;;26.30;24.20;;;;;;;;;;5075868;28;20456;-89
2021/09/25 05:54:10;;;;;;;25.40;23.27;;;;;;;;;;5075923;28;20434;-89
2021/09/25 05:56:38;;;;;;;24.57;22.53;;;;;;;;;;5076384;28;20504;-88
2021/09/25 05:59:07;;;;;;;25.63;23.63;;;;;;;;;;5075842;28;20419;-88
2021/09/25 06:01:36;;;;;;;26.47;24.20;;;;;;;;;;5075676;28;20468;-89
2021/09/25 06:04:04;;;;;;;25.93;23.93;;;;;;;;;;5075708;28;20817;-90
2021/09/25 06:06:33;;;;;;;24.57;22.77;;;;;;;;;;5075425;28;20879;-90
2021/09/25 06:09:00;;;;;;;26.10;23.77;;;;;;;;;;5075398;28;20753;-87
2021/09/25 06:11:27;;;;;;;26.13;24.33;;;;;;;;;;5075478;28;20501;-89
2021/09/25 06:13:55;;;;;;;24.63;22.80;;;;;;;;;;5075430;28;20447;-88
2021/09/25 06:16:23;;;;;;;26.23;23.83;;;;;;;;;;5075700;28;20434;-90
2021/09/25 06:18:51;;;;;;;27.50;25.20;;;;;;;;;;5057840;28;20509;-89
2021/09/25 06:21:18;;;;;;;25.67;23.80;;;;;;;;;;5057984;28;20418;-90
2021/09/25 06:23:46;;;;;;;23.90;21.90;;;;;;;;;;5077254;28;20744;-88
2021/09/25 06:26:14;;;;;;;24.93;22.93;;;;;;;;;;5075065;28;20433;-92
2021/09/25 06:28:41;;;;;;;25.93;23.70;;;;;;;;;;5075333;28;20413;-89
2021/09/25 06:31:09;;;;;;;25.40;23.33;;;;;;;;;;5075849;28;20420;-91
2021/09/25 06:33:37;;;;;;;23.57;21.93;;;;;;;;;;5075130;28;20424;-92
2021/09/25 06:36:05;;;;;;;23.83;21.90;;;;;;;;;;5057431;28;20424;-90
2021/09/25 06:38:33;;;;;;;24.50;22.60;;;;;;;;;;5075124;28;20461;-89
2021/09/25 06:41:00;;;;;;;24.27;22.53;;;;;;;;;;5075109;28;20417;-92
2021/09/25 06:43:27;;;;;;;24.13;22.17;;;;;;;;;;5074961;28;20404;-91
2021/09/25 06:45:55;;;;;;;24.17;22.27;;;;;;;;;;5073832;28;20420;-92
2021/09/25 06:48:22;;;;;;;24.27;22.23;;;;;;;;;;5074657;28;20406;-92
2021/09/25 06:50:51;;;;;;;23.70;22.00;;;;;;;;;;5075122;28;20441;-92
2021/09/25 06:53:18;;;;;;;25.00;23.10;;;;;;;;;;5074652;28;20831;-91
2021/09/25 06:55:46;;;;;;;23.90;22.00;;;;;;;;;;5074794;28;20418;-91
2021/09/25 06:58:13;;;;;;;25.53;23.20;;;;;;;;;;5075059;28;20406;-92
2021/09/25 07:00:44;;;;;;;26.73;24.67;;;;;;;;;;5056915;28;20445;-91
2021/09/25 07:03:12;;;;;;;26.20;24.30;;;;;;;;;;5074732;28;20786;-92
2021/09/25 07:05:39;;;;;;;25.77;23.57;;;;;;;;;;5074630;28;20443;-91
2021/09/25 07:08:08;;;;;;;26.77;24.67;;;;;;;;;;5074381;28;20438;-92
2021/09/25 07:10:37;;;;;;;25.63;23.83;;;;;;;;;;5057049;28;20482;-91
2021/09/25 07:13:04;;;;;;;24.03;22.23;;;;;;;;;;5074505;28;20451;-92
2021/09/25 07:15:32;;;;;;;24.20;22.30;;;;;;;;;;5074424;28;20429;-92
2021/09/25 07:17:59;;;;;;;26.77;24.67;;;;;;;;;;5057089;28;20417;-91
2021/09/25 07:20:27;;;;;;;26.20;24.23;;;;;;;;;;5074522;28;20500;-92
2021/09/25 07:22:55;;;;;;;24.00;21.97;;;;;;;;;;5074432;28;20426;-92
2021/09/25 07:25:24;;;;;;;25.70;23.50;;;;;;;;;;5074114;28;20840;-92
2021/09/25 07:27:52;;;;;;;24.13;22.33;;;;;;;;;;5074063;28;20433;-91
2021/09/25 07:30:20;;;;;;;24.13;22.43;;;;;;;;;;5074351;28;20410;-92
2021/09/25 07:32:47;;;;;;;25.23;23.23;;;;;;;;;;5074296;28;20849;-91
2021/09/25 07:35:15;;;;;;;23.37;21.67;;;;;;;;;;5057305;28;20419;-92
2021/09/25 07:37:43;;;;;;;25.00;22.93;;;;;;;;;;5074571;28;20414;-91
2021/09/25 07:40:11;;;;;;;25.10;23.10;;;;;;;;;;5074135;28;20438;-91
2021/09/25 07:42:40;;;;;;;25.30;23.27;;;;;;;;;;5056479;28;20451;-92
2021/09/25 07:45:08;;;;;;;25.17;23.47;;;;;;;;;;5074302;28;20899;-92
2021/09/25 07:47:36;;;;;;;25.80;23.90;;;;;;;;;;5074437;28;20439;-92
2021/09/25 07:50:04;;;;;;;24.57;22.87;;;;;;;;;;5074023;28;20406;-92
2021/09/25 07:52:32;;;;;;;25.40;23.23;;;;;;;;;;5074201;28;20444;-92
2021/09/25 07:55:00;;;;;;;26.43;24.33;;;;;;;;;;5074109;28;20463;-92
2021/09/25 07:57:27;;;;;;;26.00;23.97;;;;;;;;;;5075930;28;20456;-91
2021/09/25 07:59:56;;;;;;;25.40;23.50;;;;;;;;;;5078339;28;20458;-93
2021/09/25 08:02:23;;;;;;;27.90;25.53;;;;;;;;;;5078212;28;20432;-94
2021/09/25 08:04:51;;;;;;;24.50;22.57;;;;;;;;;;5077881;28;20414;-91
2021/09/25 08:07:18;;;;;;;24.50;22.53;;;;;;;;;;5077701;28;20418;-92
2021/09/25 08:09:45;;;;;;;24.57;22.60;;;;;;;;;;5060250;28;20485;-93
2021/09/25 08:12:13;;;;;;;25.07;23.07;;;;;;;;;;5077837;28;20452;-93
2021/09/25 08:14:40;;;;;;;26.53;24.13;;;;;;;;;;5059989;28;20419;-93
2021/09/25 08:17:09;;;;;;;25.00;23.20;;;;;;;;;;5077682;28;20446;-93
2021/09/25 08:19:36;;;;;;;24.90;23.10;;;;;;;;;;5078174;28;20410;-93
2021/09/25 08:22:04;;;;;;;24.10;22.40;;;;;;;;;;5077800;28;20435;-93
2021/09/25 08:24:31;;;;;;;26.17;24.37;;;;;;;;;;5077488;28;20442;-93
2021/09/25 08:26:59;;;;;;;25.60;23.77;;;;;;;;;;5077420;28;20413;-93
2021/09/25 08:29:26;;;;;;;25.87;23.97;;;;;;;;;;5077108;28;20462;-93
2021/09/25 08:31:54;;;;;;;24.67;22.83;;;;;;;;;;5043340;28;20443;-93
2021/09/25 08:34:22;;;;;;;25.83;23.67;;;;;;;;;;5077711;28;20767;-94
2021/09/25 08:36:50;;;;;;;25.57;23.27;;;;;;;;;;5059967;28;20422;-94
2021/09/25 08:39:18;;;;;;;24.77;22.87;;;;;;;;;;5059484;28;20445;-94
2021/09/25 08:41:45;;;;;;;26.47;24.37;;;;;;;;;;5077738;28;20899;-93
2021/09/25 08:44:13;;;;;;;25.37;23.57;;;;;;;;;;5077118;28;20405;-93
2021/09/25 08:46:40;;;;;;;25.03;23.30;;;;;;;;;;5077674;28;20875;-94
2021/09/25 08:49:08;;;;;;;26.00;24.10;;;;;;;;;;5059305;28;20417;-95
2021/09/25 08:51:37;;;;;;;25.07;23.13;;;;;;;;;;5077513;28;20465;-94
2021/09/25 08:54:05;;;;;;;25.43;23.23;;;;;;;;;;5059027;28;20487;-94
2021/09/25 08:56:32;;;;;;;27.47;25.27;;;;;;;;;;5076882;28;20924;-94
2021/09/25 08:59:00;;;;;;;25.80;23.80;;;;;;;;;;5059598;28;20429;-93
2021/09/25 09:01:29;;;;;;;26.73;24.60;;;;;;;;;;5059666;28;20443;-94
2021/09/25 09:03:58;;;;;;;26.30;24.20;;;;;;;;;;5076605;28;20444;-94
2021/09/25 09:06:27;;;;;;;26.63;24.50;;;;;;;;;;5076735;28;20843;-94
2021/09/25 09:08:57;;;;;;;25.90;23.90;;;;;;;;;;5076021;28;20401;-94
2021/09/25 09:11:25;;;;;;;26.30;24.23;;;;;;;;;;5059106;28;20445;-93
2021/09/25 09:13:53;;;;;;;26.53;24.13;;;;;;;;;;5076672;28;20914;-93
2021/09/25 09:16:21;;;;;;;25.63;23.70;;;;;;;;;;5077128;28;20408;-95
2021/09/25 09:18:49;;;;;;;26.13;24.13;;;;;;;;;;5077014;28;20426;-91
2021/09/25 09:21:18;;;;;;;26.17;24.07;;;;;;;;;;5076612;28;20439;-92
2021/09/25 09:23:48;;;;;;;26.23;24.33;;;;;;;;;;5076269;28;20417;-92
2021/09/25 09:26:18;;;;;;;27.73;25.70;;;;;;;;;;5076814;28;20774;-92
2021/09/25 09:28:46;;;;;;;26.43;24.50;;;;;;;;;;5076519;28;20410;-91
2021/09/25 09:31:14;;;;;;;27.30;25.40;;;;;;;;;;5076687;28;20452;-93
2021/09/25 09:33:43;;;;;;;25.50;23.80;;;;;;;;;;5058636;28;20506;-92
2021/09/25 09:36:28;;;;;;;25.50;23.50;;;;;;;;;;5059137;28;20421;-92
2021/09/25 09:39:01;;;;;;;26.07;23.77;;;;;;;;;;5075922;28;20496;-92
2021/09/25 09:41:32;;;;;;;25.60;23.70;;;;;;;;;;5076282;28;20438;-92
2021/09/25 09:44:00;;;;;;;26.17;24.17;;;;;;;;;;5076167;28;20806;-92
2021/09/25 09:46:29;;;;;;;26.70;24.70;;;;;;;;;;5058556;28;20947;-91
2021/09/25 09:48:56;;;;;;;26.73;24.63;;;;;;;;;;5075875;28;20415;-92
2021/09/25 09:51:37;;;;;;;27.77;25.57;;;;;;;;;;5075805;28;20417;-92
2021/09/25 09:54:04;;;;;;;25.13;23.23;;;;;;;;;;5075812;28;20475;-92
2021/09/25 09:56:33;;;;;;;26.27;24.17;;;;;;;;;;5075552;28;20916;-91
2021/09/25 09:59:01;;;;;;;27.10;24.67;;;;;;;;;;5076000;28;20418;-91
2021/09/25 10:01:29;;;;;;;25.83;23.80;;;;;;;;;;5075635;28;20426;-91
2021/09/25 10:03:57;;;;;;;26.50;24.60;;;;;;;;;;5076559;28;20439;-91
2021/09/25 10:06:24;;;;;;;25.57;23.57;;;;;;;;;;5075374;28;20426;-91
2021/09/25 10:08:52;;;;;;;26.40;24.50;;;;;;;;;;5075490;28;20438;-92
2021/09/25 10:11:19;;;;;;;25.00;23.20;;;;;;;;;;5059159;28;20419;-88
2021/09/25 10:13:48;;;;;;;25.23;23.33;;;;;;;;;;5075164;28;20465;-88
2021/09/25 10:16:16;;;;;;;25.60;23.37;;;;;;;;;;5075647;28;20896;-93
2021/09/25 10:18:44;;;;;;;25.50;23.40;;;;;;;;;;5075368;28;21016;-92
2021/09/25 10:21:12;;;;;;;27.37;25.07;;;;;;;;;;5075451;28;20452;-93
2021/09/25 10:23:43;;;;;;;24.13;22.50;;;;;;;;;;5075355;28;20438;-93
2021/09/25 10:26:11;;;;;;;24.73;22.90;;;;;;;;;;5074976;28;20427;-92
2021/09/25 10:28:38;;;;;;;23.23;21.40;;;;;;;;;;5075334;28;20438;-91
2021/09/25 10:31:17;;;;;;;24.13;22.47;;;;;;;;;;5057801;28;20427;-90
2021/09/25 10:34:04;;;;;;;24.60;22.73;;;;;;;;;;5075025;28;20482;-91
2021/09/25 10:36:37;;;;;;;24.13;22.27;;;;;;;;;;5075741;28;20924;-91
2021/09/25 10:39:16;;;;;;;25.10;23.23;;;;;;;;;;5074850;28;20482;-90
2021/09/25 10:41:44;;;;;;;25.13;23.17;;;;;;;;;;5075124;28;20414;-90
2021/09/25 10:44:24;;;;;;;23.87;22.07;;;;;;;;;;5057205;28;20875;-90
2021/09/25 10:46:53;;;;;;;23.67;21.60;;;;;;;;;;5075272;28;20946;-90
2021/09/25 10:49:21;;;;;;;23.53;21.73;;;;;;;;;;5074807;28;20421;-89
2021/09/25 10:51:49;;;;;;;24.27;22.33;;;;;;;;;;5075164;28;20454;-91
2021/09/25 10:54:17;;;;;;;23.93;22.17;;;;;;;;;;5074762;28;20459;-92
2021/09/25 10:56:47;;;;;;;22.97;21.37;;;;;;;;;;5074835;28;20467;-92
2021/09/25 10:59:14;;;;;;;25.33;23.70;;;;;;;;;;5074611;28;20488;-92
2021/09/25 11:01:43;;;;;;;24.87;23.07;;;;;;;;;;5074489;28;20415;-91
2021/09/25 11:04:13;;;;;;;22.73;21.13;;;;;;;;;;5074451;28;20406;-88
2021/09/25 11:06:42;;;;;;;23.60;22.00;;;;;;;;;;5074642;28;20858;-90
2021/09/25 11:09:10;;;;;;;22.70;21.20;;;;;;;;;;5074351;28;20443;-90
2021/09/25 11:11:39;;;;;;;24.80;23.10;;;;;;;;;;5057389;28;20419;-90
2021/09/25 11:14:08;;;;;;;24.50;22.87;;;;;;;;;;5074548;28;20462;-94
2021/09/25 11:16:59;;;;;;;24.60;22.80;;;;;;;;;;5074668;28;20435;-90
2021/09/25 11:19:33;;;;;;;23.97;22.37;;;;;;;;;;5050604;28;20459;-91
2021/09/25 11:22:01;;;;;;;24.00;22.03;;;;;;;;;;5074448;28;20422;-92
2021/09/25 11:24:30;;;;;;;23.17;21.70;;;;;;;;;;5040367;28;20454;-91
2021/09/25 11:26:57;;;;;;;23.30;21.70;;;;;;;;;;5074145;28;20430;-92
2021/09/25 11:29:25;;;;;;;23.93;22.33;;;;;;;;;;5074443;28;20458;-92
2021/09/25 11:32:02;;;;;;;22.93;21.50;;;;;;;;;;5056201;28;20487;-91
2021/09/25 11:34:31;;;;;;;24.20;22.63;;;;;;;;;;5074019;28;20969;-92
2021/09/25 11:37:00;;;;;;;24.30;22.60;;;;;;;;;;5074482;28;20427;-91
2021/09/25 11:39:37;;;;;;;24.97;23.10;;;;;;;;;;5074318;28;20826;-91
2021/09/25 11:42:15;;;;;;;24.13;22.40;;;;;;;;;;5074029;28;20414;-91
2021/09/25 11:44:51;;;;;;;22.40;20.90;;;;;;;;;;5074300;28;20421;-92
2021/09/25 11:47:25;;;;;;;23.93;22.37;;;;;;;;;;5074799;28;20411;-92
2021/09/25 11:49:53;;;;;;;23.13;21.53;;;;;;;;;;5073975;28;20433;-91
2021/09/25 11:52:22;;;;;;;22.60;21.00;;;;;;;;;;5056301;28;20451;-92
2021/09/25 11:54:50;;;;;;;23.20;21.77;;;;;;;;;;5073524;28;20991;-91
2021/09/25 11:57:19;;;;;;;24.03;22.13;;;;;;;;;;5074087;28;20447;-91
2021/09/25 11:59:47;;;;;;;24.50;22.67;;;;;;;;;;5074128;28;20782;-91
2021/09/25 12:02:29;;;;;;;24.80;23.20;;;;;;;;;;5073864;28;20453;-92
2021/09/25 12:04:57;;;;;;;24.90;22.93;;;;;;;;;;5055387;28;20505;-91
2021/09/25 12:07:39;;;;;;;25.20;23.57;;;;;;;;;;5074066;28;20436;-91
2021/09/25 12:10:07;;;;;;;23.90;22.30;;;;;;;;;;5074622;28;20440;-91
2021/09/25 12:12:35;;;;;;;24.87;23.10;;;;;;;;;;5073723;28;20444;-91
2021/09/25 12:15:02;;;;;;;24.40;23.00;;;;;;;;;;5072973;28;20478;-91
2021/09/25 12:17:29;;;;;;;23.80;22.30;;;;;;;;;;5073421;28;20933;-91
2021/09/25 12:20:14;;;;;;;24.83;23.00;;;;;;;;;;5073221;28;20419;-89
2021/09/25 12:22:45;;;;;;;25.33;23.20;;;;;;;;;;5073361;28;20925;-90
2021/09/25 12:25:12;;;;;;;25.00;23.23;;;;;;;;;;5073538;28;20505;-91
2021/09/25 12:27:41;;;;;;;22.93;21.33;;;;;;;;;;5073625;28;20464;-90
2021/09/25 12:30:10;;;;;;;23.80;22.20;;;;;;;;;;5073533;28;20456;-92
2021/09/25 12:32:38;;;;;;;25.50;23.70;;;;;;;;;;5074476;28;20508;-92
2021/09/25 12:35:17;;;;;;;24.47;22.87;;;;;;;;;;5073635;28;20459;-92
2021/09/25 12:37:49;;;;;;;23.33;21.63;;;;;;;;;;5073221;28;20482;-91
2021/09/25 12:40:17;;;;;;;28.17;26.07;;;;;;;;;;5073708;28;20468;-93
2021/09/25 12:42:44;;;;;;;25.83;24.33;;;;;;;;;;5073571;28;20958;-92
2021/09/25 12:45:12;;;;;;;25.23;23.70;;;;;;;;;;5076382;28;20486;-91
2021/09/25 12:47:40;;;;;;;201.83;193.87;;;;;;;;;;5077182;28;20432;-91
2021/09/25 12:50:18;;;;;;;401.00;382.73;;;;;;;;;;5076981;28;20876;-92
2021/09/25 12:52:46;;;;;;;499.03;466.23;;;;;;;;;;5059659;28;20802;-91
2021/09/25 12:55:15;;;;;;;401.07;383.73;;;;;;;;;;5059254;28;20480;-92
2021/09/25 12:57:43;;;;;;;516.10;484.00;;;;;;;;;;5076701;28;20421;-92
2021/09/25 13:00:11;;;;;;;510.37;470.80;;;;;;;;;;5059242;28;20527;-91
2021/09/25 13:02:39;;;;;;;491.03;450.23;;;;;;;;;;5076909;28;20432;-91
2021/09/25 13:05:08;;;;;;;469.97;443.00;;;;;;;;;;5077106;28;20452;-92
2021/09/25 13:07:36;;;;;;;492.87;462.97;;;;;;;;;;5077717;28;21033;-92
2021/09/25 13:10:05;;;;;;;517.27;477.20;;;;;;;;;;5076968;28;20424;-91
2021/09/25 13:12:34;;;;;;;491.13;455.33;;;;;;;;;;5077020;28;20429;-90
2021/09/25 13:15:03;;;;;;;512.53;468.53;;;;;;;;;;5076484;28;20481;-91
2021/09/25 13:17:31;;;;;;;572.17;521.40;;;;;;;;;;5077171;28;20429;-91
2021/09/25 13:19:58;;;;;;;530.57;488.73;;;;;;;;;;5076604;28;20471;-91
2021/09/25 13:22:25;;;;;;;507.40;475.10;;;;;;;;;;5076678;28;20918;-91
2021/09/25 13:24:54;;;;;;;502.57;465.67;;;;;;;;;;5077288;28;20460;-91
2021/09/25 13:27:21;;;;;;;508.43;475.87;;;;;;;;;;5076484;28;20461;-92
2021/09/25 13:29:52;;;;;;;492.80;463.87;;;;;;;;;;5076366;28;20456;-91
2021/09/25 13:32:20;;;;;;;489.57;444.63;;;;;;;;;;5076014;28;21019;-91
2021/09/25 13:34:47;;;;;;;529.90;482.77;;;;;;;;;;5076263;28;20831;-92
2021/09/25 13:37:14;;;;;;;567.60;518.97;;;;;;;;;;5076317;28;20444;-91
2021/09/25 13:39:42;;;;;;;552.03;508.70;;;;;;;;;;5075809;28;20965;-91
2021/09/25 13:42:09;;;;;;;514.80;488.37;;;;;;;;;;5075870;28;20460;-91
2021/09/25 13:44:37;;;;;;;547.97;504.47;;;;;;;;;;5076314;28;20448;-91
2021/09/25 13:47:06;;;;;;;602.30;557.47;;;;;;;;;;5076300;28;20436;-91
2021/09/25 13:49:34;;;;;;;556.20;517.27;;;;;;;;;;5076584;28;20452;-91
2021/09/25 13:52:01;;;;;;;580.20;544.83;;;;;;;;;;5058430;28;20454;-91
2021/09/25 13:54:28;;;;;;;601.37;559.53;;;;;;;;;;5075210;28;20488;-92
2021/09/25 13:56:56;;;;;;;548.07;513.83;;;;;;;;;;5058205;28;20445;-90
2021/09/25 13:59:23;;;;;;;582.20;541.23;;;;;;;;;;5075776;28;20441;-89
2021/09/25 14:01:51;;;;;;;618.97;567.97;;;;;;;;;;5058263;28;20452;-89
2021/09/25 14:04:20;;;;;;;635.77;580.10;;;;;;;;;;5075452;28;20464;-89
2021/09/25 14:06:48;;;;;;;615.50;558.03;;;;;;;;;;5075684;28;20452;-89
2021/09/25 14:09:15;;;;;;;612.97;556.40;;;;;;;;;;5075622;28;20457;-89
2021/09/25 14:11:43;;;;;;;623.97;572.37;;;;;;;;;;5075767;28;20441;-90
2021/09/25 14:14:11;;;;;;;620.50;572.40;;;;;;;;;;5076141;28;20491;-95
2021/09/25 14:16:38;;;;;;;633.07;580.80;;;;;;;;;;5058322;28;20444;-95
2021/09/25 14:19:05;;;;;;;585.83;546.97;;;;;;;;;;5057995;28;20449;-96
2021/09/25 14:21:37;;;;;;;672.07;617.50;;;;;;;;;;5075667;28;20591;-96